Monday, November 20, 2017, 4:18 AM EST
Back to Local

KGSB, Seymour-johnson Air Force Base

Location: Goldsboro, NC, United States Lat: 35.333
Local Time: 4:18 AM EST ( 9:18 GMT) Lon: -77.967
Time Zone: US/Eastern Elev: 108 ft

Show me the last for .
Show Coded

Time T Td Feel RH Dir Speed Gust Alt SLP Vis Weather Sky Remarks
2017-11-20 03:56 37 27 32 66 310° 7 - 30.11 30.12 10 CLR None
2017-11-20 02:56 36 28 33 73 260° 3 - 30.12 30.13 10 CLR None
2017-11-20 01:56 38 28 34 69 250° 5 - 30.09 30.10 10 CLR None
2017-11-20 00:56 39 27 36 61 270° 5 - 30.07 30.08 10 CLR 6-hr Min Temp (1am): 39.4°F
6-hr Max Temp (1am): 52.9°F
2017-11-19 23:56 42 27 - 55 - Calm - 30.08 30.09 10 CLR 24-hr Min Temp (12am): 41.5°F
24-hr Max Temp (12am): 66.7°F
2017-11-19 22:56 44 26 40 49 320° 6 - 30.05 30.06 10 CLR None
2017-11-19 21:56 45 26 41 45 320° 9 - 30.03 30.04 10 CLR None
2017-11-19 20:56 48 26 44 42 310° 9 - 30.01 30.02 10 CLR None
2017-11-19 19:56 50 27 - 40 320° 14 - 29.96 29.97 10 CLR None
2017-11-19 18:56 53 29 - 39 330° 10 - 29.92 29.93 10 CLR 6-hr Min Temp (7pm): 52.9°F
6-hr Max Temp (7pm): 62.8°F
2017-11-19 17:56 54 31 - 40 280° 10 - 29.88 29.89 10 CLR None
2017-11-19 16:56 58 30 - 34 280° 13 - 29.84 29.85 10 CLR None
2017-11-19 15:56 61 29 - 29 310° 9 16 29.81 29.82 10 CLR None
2017-11-19 14:56 62 29 - 28 320° 12 21 29.78 29.79 10 CLR None
2017-11-19 13:56 62 31 - 31 300° 15 21 29.77 29.78 10 CLR None
2017-11-19 13:19 63 34 - 33 280° 13 20 29.77 29.78 10 CLR Wind Shift: 16 min
2017-11-19 12:56 62 33 - 32 310° 13 - 29.76 29.77 10 CLR 6-hr Min Temp (1pm): 56.3°F
6-hr Max Temp (1pm): 62.2°F
2017-11-19 11:56 62 35 - 37 290° 14 21 29.78 29.79 10 CLR None
2017-11-19 11:30 61 36 - 38 330° 14 - 29.78 29.79 10 CLR Wind Shift: 23 min
2017-11-19 10:56 60 37 - 41 320° 15 22 29.79 29.80 10 CLR None
2017-11-19 09:56 57 39 - 49 310° 15 21 29.77 29.78 10 CLR None
2017-11-19 08:56 56 42 - 58 300° 16 21 29.74 29.75 10 CLR None
2017-11-19 08:02 59 46 - 62 310° 15 30 29.70 29.71 10 SCT029 None
2017-11-19 07:56 59 49 - 71 300° 12 22 29.69 29.70 10 BKN028 BKN050 None
2017-11-19 07:47 59 52 - 77 290° 13 21 29.69 29.70 10 BKN028 BKN033 OVC050 None
2017-11-19 06:56 60 55 - 85 270° 10 - 29.64 29.65 10 OVC041 Peak wind: 29 mph (26 kts) from 280° at 24 min
1-hr Precip Total: 0.01"
6-hr Precip Total (7am): 0.06"
24-hr Precip Total (7am): 0.06"
6-hr Min Temp (7am): 59.5°F
6-hr Max Temp (7am): 66.7°F
2017-11-19 06:41 61 55 - 82 270° 13 22 29.63 29.64 10 OVC036 None
2017-11-19 06:24 63 59 - 88 260° 23 30 29.62 29.63 10 -RA FEW029 BKN034 BKN042 OVC048 Wind Shift: 20 min
Pressure rising rapidly
2017-11-19 06:02 63 59 - 88 230° 16 - 29.59 29.60 10 -RA FEW046 BKN065 OVC090 None
2017-11-19 05:57 63 59 - 88 220° 14 - 29.60 29.61 10 BKN065 OVC090 None
2017-11-19 05:56 62 59 - 89 230° 16 - 29.59 29.60 10 -RA BKN065 OVC090 1-hr Precip Total: 0.05"
2017-11-19 05:10 64 57 - 77 220° 21 26 29.58 29.59 10 -RA SCT035 OVC075 None
2017-11-19 05:00 64 57 - 77 230° 17 25 29.57 29.58 10 SCT033 SCT043 OVC070 None
2017-11-19 04:56 64 57 - 77 220° 15 25 29.56 29.57 10 -RA BKN033 BKN043 OVC070 1-hr Precip Total: Trace
2017-11-19 04:27 66 55 - 68 220° 18 29 29.56 29.57 10 -RA OVC034 None

Support USWX by starting your Amazon purchase here.